Main page
METAR-TAF:

METAR-TAF

Airports :

RAF Benson

Benson, England

latitude: 51-37N, longitude: 001-05W, elevation: 63 m

Current weather observation

The report was made 29 minutes ago, at 20:50 UTC
Wind 7 kt from the South
Temperature 9°C
Humidity 87%
Pressure 1024 hPa
Visibility 10 km or more

METAR: EGUB 132050Z AUTO 17007KT 9999 // FEW180/// 09/07 Q1024

Time: 21:19 (21:19 UTC)

Forecast

The report was made 7 hours and 46 minutes ago, at 13:33 UTC
Forecast valid from 13 at 15 UTC to 13 at 24 UTC
Wind 8 kt from the South/Southwest
Visibility 10 km or more
Scattered clouds at a height of 2800 ft
Probability 30% :
Temporary
from 13 at 19 UTC to 13 at 24 UTC
Scattered clouds at a height of 2400 ft

TAF: EGUB 131333Z 1315/1324 20008KT 9999 SCT028 PROB30 TEMPO 1319/1324 SCT024

Weather observations and forecasts of more than 4000 airports (METAR and TAF reports).

The available stations are represented by yellow and red dots on the map.

Hover mouse over dot to see the name of the station.

Then click to see weather observations and forecasts.

To change the map : click on the green buttons with a black cross to zoom in, on the green button with a dash to zoom out, or on the green arrows for adjacent maps.


METAR-TAF: